Time;durP1;ratioP1;P1;durP2;ratioP2;P2;SDS_P1;SDS_P2;PMS_P1;PMS_P2;Temp;Humidity;BMP_temperature;BMP_pressure;BME280_temperature;BME280_humidity;BME280_pressure;Samples;Min_cycle;Max_cycle;Signal;HPM_P1;HPM_P2
2022/02/07 00:01:06;;;;;;;0.20;0.13;;;;;;;;;;4180598;28;20056;-33
2022/02/07 00:03:17;;;;;;;0.20;0.10;;;;;;;;;;4179608;28;20064;-33
2022/02/07 00:05:24;;;;;;;0.20;0.20;;;;;;;;;;4181113;28;20045;-33
2022/02/07 00:07:26;;;;;;;0.20;0.20;;;;;;;;;;4180802;28;20057;-33
2022/02/07 00:09:29;;;;;;;0.13;0.13;;;;;;;;;;4180768;28;20386;-33
2022/02/07 00:11:30;;;;;;;0.10;0.10;;;;;;;;;;4180623;28;20398;-33
2022/02/07 00:13:31;;;;;;;0.10;0.10;;;;;;;;;;4180682;28;20103;-33
2022/02/07 00:15:35;;;;;;;0.10;0.10;;;;;;;;;;4179284;28;20115;-33
2022/02/07 00:17:36;;;;;;;0.20;0.10;;;;;;;;;;4180328;28;20057;-33
2022/02/07 00:19:37;;;;;;;0.30;0.10;;;;;;;;;;4180833;28;20246;-33
2022/02/07 00:21:38;;;;;;;0.17;0.08;;;;;;;;;;4180555;28;20064;-33
2022/02/07 00:23:39;;;;;;;0.10;0.10;;;;;;;;;;4180808;28;20170;-33
2022/02/07 00:25:40;;;;;;;0.30;0.10;;;;;;;;;;4180498;28;20053;-33
2022/02/07 00:27:41;;;;;;;0.40;0.20;;;;;;;;;;4179236;28;20052;-33
2022/02/07 00:29:43;;;;;;;0.17;0.10;;;;;;;;;;4179329;28;20095;-33
2022/02/07 00:31:44;;;;;;;0.43;0.22;;;;;;;;;;4180291;28;20082;-33
2022/02/07 00:33:45;;;;;;;0.20;0.20;;;;;;;;;;4180526;28;20079;-33
2022/02/07 00:35:47;;;;;;;0.20;0.10;;;;;;;;;;4179082;28;20053;-33
2022/02/07 00:37:51;;;;;;;0.32;0.13;;;;;;;;;;4179169;28;20418;-33
2022/02/07 00:40:16;;;;;;;0.10;0.10;;;;;;;;;;4180420;28;20061;-33
2022/02/07 00:42:22;;;;;;;0.30;0.20;;;;;;;;;;4180249;28;20106;-33
2022/02/07 00:44:24;;;;;;;0.15;0.10;;;;;;;;;;4179392;28;20064;-33
2022/02/07 00:46:33;;;;;;;0.45;0.28;;;;;;;;;;4179894;28;20111;-33
2022/02/07 00:48:35;;;;;;;;;;;;;;;;;;4180777;28;20394;-33
2022/02/07 00:50:38;;;;;;;0.17;0.17;;;;;;;;;;4179026;28;19951;-33
2022/02/07 00:52:39;;;;;;;0.30;0.20;;;;;;;;;;4180276;28;20053;-33
2022/02/07 00:54:40;;;;;;;0.55;0.20;;;;;;;;;;4162756;28;20054;-33
2022/02/07 00:56:41;;;;;;;0.25;0.22;;;;;;;;;;4180171;28;20061;-33
2022/02/07 00:58:43;;;;;;;0.10;0.10;;;;;;;;;;4178913;28;20083;-33
2022/02/07 01:00:46;;;;;;;0.30;0.10;;;;;;;;;;4178527;28;20055;-33
2022/02/07 01:02:47;;;;;;;0.00;0.00;;;;;;;;;;4180471;28;20130;-33
2022/02/07 01:04:49;;;;;;;0.40;0.10;;;;;;;;;;4179022;28;20119;-33
2022/02/07 01:06:50;;;;;;;0.28;0.10;;;;;;;;;;4182163;28;20057;-33
2022/02/07 01:11:31;;;;;;;0.20;0.10;;;;;;;;;;4182251;28;20352;-33
2022/02/07 01:15:55;;;;;;;0.20;0.10;;;;;;;;;;4182287;28;20057;-33
2022/02/07 01:50:50;;;;;;;0.47;0.20;;;;;;;;;;4181927;28;20072;-33
2022/02/07 01:53:02;;;;;;;0.10;0.10;;;;;;;;;;4181566;28;20481;-33
2022/02/07 01:55:32;;;;;;;0.30;0.17;;;;;;;;;;4181477;28;20057;-33
2022/02/07 01:57:30;;;;;;;0.25;0.20;;;;;;;;;;4181036;28;20111;-33
2022/02/07 01:59:33;;;;;;;0.10;0.10;;;;;;;;;;4181352;28;20331;-33
2022/02/07 02:01:37;;;;;;;0.20;0.20;;;;;;;;;;4181168;28;20087;-33
2022/02/07 02:03:38;;;;;;;0.13;0.10;;;;;;;;;;4181585;28;20061;-33
2022/02/07 02:05:39;;;;;;;0.40;0.20;;;;;;;;;;4182842;28;20174;-33
2022/02/07 02:07:49;;;;;;;0.20;0.20;;;;;;;;;;4181381;28;20057;-33
2022/02/07 02:09:50;;;;;;;0.10;0.10;;;;;;;;;;4182848;28;20119;-33
2022/02/07 02:11:52;;;;;;;0.10;0.10;;;;;;;;;;4181177;28;20519;-33
2022/02/07 02:16:11;;;;;;;0.10;0.10;;;;;;;;;;4180756;28;20076;-33
2022/02/07 02:45:24;;;;;;;0.17;0.17;;;;;;;;;;4181091;28;20057;-33
2022/02/07 02:45:53;;;;;;;0.20;0.15;;;;;;;;;;4180228;28;20275;-33
2022/02/07 02:48:04;;;;;;;0.10;0.10;;;;;;;;;;4180988;28;20057;-33
2022/02/07 02:50:26;;;;;;;0.15;0.10;;;;;;;;;;4180926;28;20057;-33
2022/02/07 02:52:28;;;;;;;1.58;0.15;;;;;;;;;;4164097;28;20088;-33
2022/02/07 02:54:29;;;;;;;0.60;0.13;;;;;;;;;;4180614;28;20123;-33
2022/02/07 02:56:31;;;;;;;0.40;0.10;;;;;;;;;;4180703;28;20103;-33
2022/02/07 02:58:32;;;;;;;0.10;0.10;;;;;;;;;;4164150;28;20080;-33
2022/02/07 03:00:36;;;;;;;0.13;0.10;;;;;;;;;;4182008;28;20057;-33
2022/02/07 03:02:40;;;;;;;0.10;0.10;;;;;;;;;;4163905;28;20104;-33
2022/02/07 03:04:42;;;;;;;0.10;0.10;;;;;;;;;;4180586;28;20064;-33
2022/02/07 03:06:43;;;;;;;0.40;0.10;;;;;;;;;;4180197;28;20064;-33
2022/02/07 03:08:44;;;;;;;0.20;0.10;;;;;;;;;;4181667;28;20056;-33
2022/02/07 03:10:58;;;;;;;0.22;0.10;;;;;;;;;;4180225;28;20061;-34
2022/02/07 03:13:09;;;;;;;0.22;0.22;;;;;;;;;;4180706;28;20057;-33
2022/02/07 03:17:30;;;;;;;0.32;0.20;;;;;;;;;;4179815;28;20061;-33
2022/02/07 03:19:32;;;;;;;0.22;0.10;;;;;;;;;;4164045;28;20171;-33
2022/02/07 03:21:34;;;;;;;0.20;0.20;;;;;;;;;;4180029;28;20053;-33
2022/02/07 03:23:35;;;;;;;0.20;0.20;;;;;;;;;;4163860;28;20100;-33
2022/02/07 03:25:39;;;;;;;0.70;0.30;;;;;;;;;;4196965;28;20052;-33
2022/02/07 03:27:41;;;;;;;0.20;0.20;;;;;;;;;;4163414;28;20065;-42
2022/02/07 03:29:52;;;;;;;0.22;0.20;;;;;;;;;;4196385;28;20381;-33
2022/02/07 03:31:58;;;;;;;0.20;0.10;;;;;;;;;;4179521;28;20136;-33
2022/02/07 03:34:06;;;;;;;0.40;0.15;;;;;;;;;;4180179;28;20053;-33
2022/02/07 03:36:08;;;;;;;0.30;0.20;;;;;;;;;;4163355;28;20057;-33
2022/02/07 03:38:10;;;;;;;0.20;0.20;;;;;;;;;;4179910;28;20127;-33
2022/02/07 03:40:12;;;;;;;0.10;0.10;;;;;;;;;;4179868;28;20397;-33
2022/02/07 03:42:15;;;;;;;0.65;0.10;;;;;;;;;;4180998;28;20053;-33
2022/02/07 03:44:24;;;;;;;0.22;0.20;;;;;;;;;;4179896;28;20056;-33
2022/02/07 03:46:25;;;;;;;0.57;0.10;;;;;;;;;;4179292;28;20122;-33
2022/02/07 03:48:28;;;;;;;0.20;0.17;;;;;;;;;;4179815;28;20539;-33
2022/02/07 03:50:29;;;;;;;0.15;0.10;;;;;;;;;;4180871;28;20119;-33
2022/02/07 03:52:31;;;;;;;0.10;0.10;;;;;;;;;;4163306;28;20057;-33
2022/02/07 03:54:32;;;;;;;0.85;0.30;;;;;;;;;;4179896;28;20053;-33
2022/02/07 03:56:36;;;;;;;0.47;0.28;;;;;;;;;;4179434;28;20057;-33
2022/02/07 03:58:37;;;;;;;0.20;0.10;;;;;;;;;;4179466;28;20065;-33
2022/02/07 04:00:40;;;;;;;0.10;0.10;;;;;;;;;;4179779;28;20053;-33
2022/02/07 04:02:54;;;;;;;0.10;0.10;;;;;;;;;;4179916;28;20099;-33
2022/02/07 04:07:38;;;;;;;0.22;0.10;;;;;;;;;;4179298;28;20071;-33
2022/02/07 04:09:45;;;;;;;0.20;0.20;;;;;;;;;;4179616;28;20061;-33
2022/02/07 04:11:52;;;;;;;0.32;0.30;;;;;;;;;;4179479;28;20182;-33
2022/02/07 04:13:56;;;;;;;0.25;0.20;;;;;;;;;;4179606;28;20049;-33
2022/02/07 04:15:59;;;;;;;0.10;0.10;;;;;;;;;;4178974;28;20068;-33
2022/02/07 04:18:04;;;;;;;0.10;0.10;;;;;;;;;;4179483;28;20477;-33
2022/02/07 04:20:05;;;;;;;0.10;0.10;;;;;;;;;;4180712;28;20053;-33
2022/02/07 04:22:15;;;;;;;;;;;;;;;;;;4180179;28;20057;-33
2022/02/07 04:24:28;;;;;;;0.10;0.10;;;;;;;;;;4179320;28;19983;-33
2022/02/07 04:26:42;;;;;;;0.22;0.10;;;;;;;;;;4179591;28;20057;-33
2022/02/07 04:28:44;;;;;;;0.10;0.10;;;;;;;;;;4179550;28;20053;-33
2022/02/07 04:30:46;;;;;;;0.10;0.10;;;;;;;;;;4178867;28;20057;-34
2022/02/07 04:32:49;;;;;;;0.63;0.10;;;;;;;;;;4179663;28;20083;-33
2022/02/07 04:34:50;;;;;;;0.40;0.20;;;;;;;;;;4180431;28;20106;-33
2022/02/07 04:36:56;;;;;;;0.20;0.10;;;;;;;;;;4162710;28;20147;-33
2022/02/07 04:38:57;;;;;;;0.10;0.10;;;;;;;;;;4179235;28;20057;-33
2022/02/07 04:40:58;;;;;;;0.10;0.08;;;;;;;;;;4179416;28;20517;-33
2022/02/07 04:42:59;;;;;;;0.15;0.10;;;;;;;;;;4182582;28;20082;-33
2022/02/07 04:47:30;;;;;;;0.73;0.03;;;;;;;;;;4182301;28;20146;-33
2022/02/07 04:49:57;;;;;;;0.10;0.10;;;;;;;;;;4166142;28;20053;-33
2022/02/07 04:52:05;;;;;;;0.10;0.10;;;;;;;;;;4165915;28;20468;-33
2022/02/07 05:01:14;;;;;;;0.10;0.10;;;;;;;;;;4166726;28;20064;-33
2022/02/07 05:03:20;;;;;;;0.10;0.10;;;;;;;;;;4182431;28;20057;-33
2022/02/07 05:14:23;;;;;;;0.15;0.15;;;;;;;;;;4165418;28;20127;-33
2022/02/07 05:16:27;;;;;;;0.52;0.17;;;;;;;;;;4181225;28;20095;-33
2022/02/07 05:18:50;;;;;;;0.10;0.10;;;;;;;;;;4166674;28;20061;-33
2022/02/07 05:21:11;;;;;;;0.10;0.10;;;;;;;;;;4166362;28;20107;-33
2022/02/07 05:23:29;;;;;;;0.10;0.10;;;;;;;;;;4165482;28;20084;-33
2022/02/07 05:25:56;;;;;;;0.20;0.10;;;;;;;;;;4157911;28;20100;-33
2022/02/07 05:28:07;;;;;;;0.10;0.10;;;;;;;;;;4166375;28;20559;-33
2022/02/07 05:30:14;;;;;;;0.43;0.10;;;;;;;;;;4166353;28;20118;-33
2022/02/07 05:32:33;;;;;;;0.20;0.10;;;;;;;;;;4165193;28;20107;-33
2022/02/07 05:34:52;;;;;;;0.10;0.10;;;;;;;;;;4151236;28;20488;-33
2022/02/07 05:37:13;;;;;;;1.25;0.20;;;;;;;;;;4166733;28;20108;-33
2022/02/07 05:39:33;;;;;;;0.15;0.10;;;;;;;;;;4165348;28;20064;-33
2022/02/07 05:42:06;;;;;;;0.28;0.28;;;;;;;;;;4164638;28;20061;-33
2022/02/07 05:44:24;;;;;;;0.10;0.10;;;;;;;;;;4164923;28;20387;-33
2022/02/07 05:46:39;;;;;;;1.55;0.20;;;;;;;;;;4150106;28;20057;-33
2022/02/07 05:48:57;;;;;;;0.20;0.10;;;;;;;;;;4177408;28;20057;-33
2022/02/07 05:51:08;;;;;;;2.55;0.40;;;;;;;;;;4181587;28;20516;-33
2022/02/07 05:53:29;;;;;;;1.35;0.38;;;;;;;;;;4166230;28;20061;-33
2022/02/07 05:55:38;;;;;;;3.22;0.73;;;;;;;;;;4165082;28;20539;-33
2022/02/07 05:57:53;;;;;;;0.55;0.20;;;;;;;;;;4164977;28;20060;-33
2022/02/07 06:00:05;;;;;;;2.90;0.40;;;;;;;;;;4181530;28;20386;-33
2022/02/07 06:02:18;;;;;;;2.03;0.20;;;;;;;;;;4165910;28;20111;-33
2022/02/07 06:04:21;;;;;;;0.40;0.28;;;;;;;;;;4181176;28;20057;-33
2022/02/07 06:06:23;;;;;;;1.48;0.25;;;;;;;;;;4164793;28;20057;-33
2022/02/07 06:08:25;;;;;;;0.47;0.20;;;;;;;;;;4181116;28;20056;-33
2022/02/07 06:10:27;;;;;;;0.52;0.20;;;;;;;;;;4180994;28;20057;-33
2022/02/07 06:12:32;;;;;;;2.22;0.50;;;;;;;;;;4181310;28;20057;-33
2022/02/07 06:14:34;;;;;;;2.28;0.30;;;;;;;;;;4181256;28;20463;-33
2022/02/07 06:16:35;;;;;;;0.98;0.28;;;;;;;;;;4165077;28;20085;-33
2022/02/07 06:18:38;;;;;;;3.30;0.43;;;;;;;;;;4180978;28;20060;-33
2022/02/07 06:20:40;;;;;;;1.52;0.30;;;;;;;;;;4180718;28;20488;-33
2022/02/07 06:22:42;;;;;;;2.53;0.47;;;;;;;;;;4164492;28;20053;-33
2022/02/07 06:24:44;;;;;;;3.83;0.30;;;;;;;;;;4164723;28;20068;-33
2022/02/07 06:26:46;;;;;;;0.50;0.20;;;;;;;;;;4164264;28;20128;-33
2022/02/07 06:28:52;;;;;;;1.15;0.40;;;;;;;;;;4181041;28;20053;-33
2022/02/07 06:30:54;;;;;;;0.22;0.20;;;;;;;;;;4163781;28;20053;-33
2022/02/07 06:32:56;;;;;;;0.80;0.30;;;;;;;;;;4180684;28;20061;-33
2022/02/07 06:34:57;;;;;;;0.70;0.28;;;;;;;;;;4163827;28;20494;-33
2022/02/07 06:36:59;;;;;;;3.30;0.50;;;;;;;;;;4163992;28;20129;-33
2022/02/07 06:39:02;;;;;;;1.30;0.35;;;;;;;;;;4148028;28;20121;-33
2022/02/07 06:41:04;;;;;;;2.35;0.50;;;;;;;;;;4163786;28;20084;-33
2022/02/07 06:43:07;;;;;;;1.45;0.30;;;;;;;;;;4180745;28;20067;-33
2022/02/07 06:45:09;;;;;;;1.65;0.30;;;;;;;;;;4163978;28;20517;-33
2022/02/07 06:47:10;;;;;;;1.98;0.50;;;;;;;;;;4163440;28;20111;-33
2022/02/07 06:49:12;;;;;;;0.50;0.22;;;;;;;;;;4178296;28;20057;-33
2022/02/07 06:51:14;;;;;;;3.97;0.50;;;;;;;;;;4180319;28;20061;-33
2022/02/07 06:53:19;;;;;;;2.97;0.32;;;;;;;;;;4180273;28;20061;-33
2022/02/07 06:55:22;;;;;;;0.95;0.30;;;;;;;;;;4163876;28;20058;-33
2022/02/07 06:57:23;;;;;;;3.30;0.52;;;;;;;;;;4180334;28;20106;-32
2022/02/07 06:59:25;;;;;;;2.20;0.30;;;;;;;;;;4180132;28;20052;-33
2022/02/07 07:01:31;;;;;;;3.83;0.40;;;;;;;;;;4163237;28;20432;-33
2022/02/07 07:03:35;;;;;;;2.13;0.22;;;;;;;;;;4180028;28;20060;-33
2022/02/07 07:05:37;;;;;;;0.50;0.30;;;;;;;;;;4180607;28;20052;-33
2022/02/07 07:07:38;;;;;;;2.53;0.30;;;;;;;;;;4177251;28;20118;-33
2022/02/07 07:09:43;;;;;;;0.55;0.40;;;;;;;;;;4181200;28;20118;-33
2022/02/07 07:11:45;;;;;;;0.75;0.30;;;;;;;;;;4179731;28;20107;-33
2022/02/07 07:13:59;;;;;;;2.15;0.38;;;;;;;;;;4178124;28;20057;-33
2022/02/07 07:16:12;;;;;;;0.98;0.40;;;;;;;;;;4179410;28;20053;-33
2022/02/07 07:18:17;;;;;;;1.52;0.40;;;;;;;;;;4173572;28;20107;-34
2022/02/07 07:20:22;;;;;;;1.95;0.60;;;;;;;;;;4171861;28;20553;-33
2022/02/07 07:22:23;;;;;;;2.38;0.50;;;;;;;;;;4176324;28;20076;-33
2022/02/07 07:24:25;;;;;;;1.05;0.43;;;;;;;;;;4179650;28;20528;-33
2022/02/07 07:26:30;;;;;;;1.83;0.45;;;;;;;;;;4170420;28;20768;-34
2022/02/07 07:28:32;;;;;;;1.13;0.35;;;;;;;;;;4180359;28;20466;-33
2022/02/07 07:30:38;;;;;;;1.27;0.55;;;;;;;;;;4178074;28;20048;-33
2022/02/07 07:32:39;;;;;;;3.03;0.30;;;;;;;;;;4167580;28;20854;-33
2022/02/07 07:34:40;;;;;;;3.80;0.43;;;;;;;;;;4159128;28;20103;-33
2022/02/07 07:37:01;;;;;;;4.28;0.45;;;;;;;;;;4191325;28;20045;-33
2022/02/07 07:39:02;;;;;;;2.47;0.30;;;;;;;;;;4170264;28;20060;-34
2022/02/07 07:41:03;;;;;;;4.03;0.38;;;;;;;;;;4176319;28;20049;-33
2022/02/07 07:43:22;;;;;;;2.30;0.32;;;;;;;;;;4173974;28;20087;-41
2022/02/07 07:46:00;;;;;;;1.13;0.40;;;;;;;;;;4172917;28;20048;-41
2022/02/07 07:48:35;;;;;;;0.93;0.40;;;;;;;;;;4162259;28;20053;-41
2022/02/07 07:53:26;;;;;;;1.27;0.40;;;;;;;;;;4171412;28;20064;-41
2022/02/07 08:02:47;;;;;;;2.05;0.30;;;;;;;;;;4162715;28;20061;-42
2022/02/07 08:04:55;;;;;;;2.45;0.55;;;;;;;;;;4167010;28;20094;-42
2022/02/07 08:07:11;;;;;;;1.17;0.30;;;;;;;;;;4158126;28;20091;-42
2022/02/07 08:09:43;;;;;;;1.40;0.50;;;;;;;;;;4169862;28;20188;-42
2022/02/07 08:11:42;;;;;;;0.88;0.30;;;;;;;;;;4172664;28;20190;-42
2022/02/07 08:13:45;;;;;;;0.68;0.30;;;;;;;;;;4172680;28;20087;-42
2022/02/07 08:15:51;;;;;;;2.38;0.43;;;;;;;;;;4165290;28;20053;-41
2022/02/07 08:17:52;;;;;;;0.70;0.30;;;;;;;;;;4175202;28;20060;-42
2022/02/07 08:19:53;;;;;;;1.98;0.50;;;;;;;;;;4165411;28;20044;-42
2022/02/07 08:21:57;;;;;;;0.77;0.38;;;;;;;;;;4174870;28;20057;-41
2022/02/07 08:23:58;;;;;;;3.65;0.70;;;;;;;;;;4177948;28;20060;-41
2022/02/07 08:26:02;;;;;;;0.95;0.30;;;;;;;;;;4169860;28;20501;-42
2022/02/07 08:28:03;;;;;;;1.33;0.50;;;;;;;;;;4175505;28;20076;-42
2022/02/07 08:30:05;;;;;;;1.67;0.60;;;;;;;;;;4175372;28;20052;-40
2022/02/07 08:32:06;;;;;;;1.73;0.40;;;;;;;;;;4171120;28;20060;-42
2022/02/07 08:34:07;;;;;;;0.63;0.32;;;;;;;;;;4171872;28;20057;-42
2022/02/07 08:36:09;;;;;;;1.00;0.40;;;;;;;;;;4172423;28;20102;-44
2022/02/07 08:38:10;;;;;;;0.55;0.28;;;;;;;;;;4172855;28;20064;-40
2022/02/07 08:40:11;;;;;;;0.80;0.30;;;;;;;;;;4170252;28;20057;-41
2022/02/07 08:42:12;;;;;;;0.47;0.30;;;;;;;;;;4174646;28;20118;-41
2022/02/07 08:44:13;;;;;;;0.40;0.30;;;;;;;;;;4170394;28;20612;-40
2022/02/07 08:46:15;;;;;;;1.30;0.20;;;;;;;;;;4174146;28;20053;-41
2022/02/07 08:48:16;;;;;;;1.15;0.40;;;;;;;;;;4170124;28;20061;-42
2022/02/07 08:50:17;;;;;;;0.85;0.20;;;;;;;;;;4168253;28;20111;-41
2022/02/07 08:52:19;;;;;;;2.10;0.40;;;;;;;;;;4169030;28;20553;-42
2022/02/07 08:54:24;;;;;;;1.05;0.50;;;;;;;;;;4165625;28;20504;-42
2022/02/07 08:56:38;;;;;;;0.32;0.32;;;;;;;;;;4176822;28;20061;-42
2022/02/07 08:58:43;;;;;;;1.10;0.32;;;;;;;;;;4176051;28;20069;-42
2022/02/07 09:01:04;;;;;;;0.85;0.30;;;;;;;;;;4167069;28;20053;-42
2022/02/07 09:07:31;;;;;;;0.50;0.30;;;;;;;;;;4166728;28;20049;-42
2022/02/07 09:09:32;;;;;;;1.17;0.20;;;;;;;;;;4171489;28;20122;-41
2022/02/07 09:11:34;;;;;;;0.80;0.22;;;;;;;;;;4179523;28;20084;-44
2022/02/07 09:13:37;;;;;;;0.75;0.30;;;;;;;;;;4168543;28;20342;-41
2022/02/07 09:15:42;;;;;;;0.55;0.30;;;;;;;;;;4169862;28;20080;-42
2022/02/07 09:17:43;;;;;;;0.57;0.38;;;;;;;;;;4166552;28;20107;-41
2022/02/07 09:19:45;;;;;;;0.40;0.20;;;;;;;;;;4167968;28;20044;-42
2022/02/07 09:21:47;;;;;;;0.57;0.28;;;;;;;;;;4163607;28;20065;-42
2022/02/07 09:23:48;;;;;;;0.68;0.20;;;;;;;;;;4171037;28;20467;-41
2022/02/07 09:25:49;;;;;;;0.73;0.30;;;;;;;;;;4171907;28;20432;-40
2022/02/07 09:27:51;;;;;;;0.85;0.45;;;;;;;;;;4167745;28;20056;-42
2022/02/07 09:29:52;;;;;;;0.20;0.20;;;;;;;;;;4168773;28;20481;-42
2022/02/07 09:31:53;;;;;;;0.65;0.30;;;;;;;;;;4168738;28;20065;-42
2022/02/07 09:33:54;;;;;;;0.30;0.20;;;;;;;;;;4171211;28;20396;-43
2022/02/07 09:35:55;;;;;;;0.35;0.20;;;;;;;;;;4170062;28;20048;-42
2022/02/07 09:37:56;;;;;;;0.75;0.43;;;;;;;;;;4171768;28;20060;-42
2022/02/07 09:39:58;;;;;;;1.05;0.20;;;;;;;;;;4177628;28;20064;-41
2022/02/07 09:42:00;;;;;;;2.00;0.30;;;;;;;;;;4173720;28;20415;-42
2022/02/07 09:44:02;;;;;;;1.27;0.30;;;;;;;;;;4175186;28;20053;-41
2022/02/07 09:46:11;;;;;;;0.80;0.20;;;;;;;;;;4165984;28;20061;-41
2022/02/07 09:48:15;;;;;;;0.73;0.30;;;;;;;;;;4173456;28;20052;-43
2022/02/07 09:50:16;;;;;;;1.45;0.40;;;;;;;;;;4172374;28;20527;-41
2022/02/07 09:52:17;;;;;;;0.65;0.20;;;;;;;;;;4169911;28;20107;-42
2022/02/07 09:54:21;;;;;;;0.30;0.20;;;;;;;;;;4173490;28;20122;-41
2022/02/07 09:56:23;;;;;;;1.40;0.25;;;;;;;;;;4169583;28;20489;-41
2022/02/07 09:58:24;;;;;;;0.25;0.15;;;;;;;;;;4177226;28;20111;-42
2022/02/07 10:00:33;;;;;;;0.40;0.20;;;;;;;;;;4169158;28;20102;-42
2022/02/07 10:02:46;;;;;;;1.58;0.63;;;;;;;;;;4171578;28;20187;-42
2022/02/07 10:04:50;;;;;;;0.38;0.20;;;;;;;;;;4173990;28;20049;-41
2022/02/07 10:07:02;;;;;;;0.82;0.40;;;;;;;;;;4165179;28;20534;-41
2022/02/07 10:11:31;;;;;;;0.38;0.30;;;;;;;;;;4167942;28;20155;-38
2022/02/07 10:15:59;;;;;;;1.67;0.20;;;;;;;;;;4177117;28;20511;-41
2022/02/07 10:18:11;;;;;;;0.55;0.10;;;;;;;;;;4168323;28;20078;-41
2022/02/07 10:39:37;;;;;;;0.50;0.10;;;;;;;;;;4171084;28;20131;-42
2022/02/07 10:44:07;;;;;;;0.70;0.30;;;;;;;;;;4168031;28;20055;-42
2022/02/07 10:48:12;;;;;;;0.13;0.13;;;;;;;;;;4175514;28;20057;-41
2022/02/07 10:50:15;;;;;;;0.40;0.20;;;;;;;;;;4172640;28;20443;-42
2022/02/07 10:52:16;;;;;;;0.50;0.22;;;;;;;;;;4172313;28;20063;-40
2022/02/07 10:54:17;;;;;;;0.52;0.20;;;;;;;;;;4170000;28;20061;-42
2022/02/07 10:56:21;;;;;;;0.30;0.20;;;;;;;;;;4177188;28;20520;-43
2022/02/07 10:58:23;;;;;;;1.70;0.10;;;;;;;;;;4185721;28;20062;-40
2022/02/07 11:00:32;;;;;;;0.40;0.22;;;;;;;;;;4151418;28;20053;-43
2022/02/07 11:02:48;;;;;;;0.95;0.22;;;;;;;;;;4165244;28;20531;-42
2022/02/07 11:05:01;;;;;;;0.38;0.20;;;;;;;;;;4177303;28;20063;-42
2022/02/07 11:07:03;;;;;;;0.32;0.20;;;;;;;;;;4178763;28;20061;-43
2022/02/07 11:09:12;;;;;;;0.10;0.10;;;;;;;;;;4178823;28;20110;-43
2022/02/07 11:13:46;;;;;;;0.85;0.20;;;;;;;;;;4174593;28;20057;-43
2022/02/07 11:16:02;;;;;;;1.45;0.10;;;;;;;;;;4172866;28;20409;-43
2022/02/07 11:20:25;;;;;;;0.25;0.20;;;;;;;;;;4173018;28;20044;-43
2022/02/07 11:25:19;;;;;;;0.50;0.30;;;;;;;;;;4176133;28;20393;-43
2022/02/07 11:27:35;;;;;;;0.63;0.10;;;;;;;;;;4164307;28;20550;-42
2022/02/07 11:29:50;;;;;;;0.95;0.17;;;;;;;;;;4168643;28;20061;-42
2022/02/07 11:31:53;;;;;;;0.40;0.20;;;;;;;;;;4168950;28;20098;-42
2022/02/07 11:34:01;;;;;;;0.38;0.20;;;;;;;;;;4170215;28;20423;-41
2022/02/07 11:36:04;;;;;;;1.75;0.30;;;;;;;;;;4179482;28;20048;-43
2022/02/07 11:38:05;;;;;;;0.45;0.20;;;;;;;;;;4179692;28;20248;-43
2022/02/07 11:40:31;;;;;;;0.25;0.15;;;;;;;;;;4171455;28;20144;-43
2022/02/07 11:42:32;;;;;;;0.50;0.30;;;;;;;;;;4168177;28;20053;-42
2022/02/07 11:44:36;;;;;;;1.30;0.28;;;;;;;;;;4169543;28;20103;-43
2022/02/07 11:46:37;;;;;;;0.30;0.20;;;;;;;;;;4177065;28;20063;-41
2022/02/07 11:48:52;;;;;;;0.35;0.17;;;;;;;;;;4167009;28;20079;-42
2022/02/07 11:50:55;;;;;;;0.63;0.20;;;;;;;;;;4172042;28;20052;-42
2022/02/07 11:52:59;;;;;;;0.47;0.20;;;;;;;;;;4167399;28;20082;-43
2022/02/07 11:55:27;;;;;;;0.10;0.10;;;;;;;;;;4174095;28;20465;-42
2022/02/07 11:57:37;;;;;;;0.40;0.30;;;;;;;;;;4177805;28;20057;-42
2022/02/07 11:59:43;;;;;;;;;;;;;;;;;;4172832;28;20135;-42
2022/02/07 12:02:03;;;;;;;0.40;0.20;;;;;;;;;;4165070;28;19921;-42
2022/02/07 12:04:08;;;;;;;0.30;0.20;;;;;;;;;;4165724;28;20124;-42
2022/02/07 12:06:11;;;;;;;0.82;0.22;;;;;;;;;;4167312;28;20493;-42
2022/02/07 12:08:26;;;;;;;0.70;0.20;;;;;;;;;;4167702;28;20053;-41
2022/02/07 12:10:38;;;;;;;0.52;0.20;;;;;;;;;;4180410;28;20056;-43
2022/02/07 12:12:47;;;;;;;0.85;0.30;;;;;;;;;;4173303;28;20060;-42
2022/02/07 12:14:48;;;;;;;0.70;0.20;;;;;;;;;;4170468;28;20118;-42
2022/02/07 12:16:50;;;;;;;0.73;0.20;;;;;;;;;;4174352;28;20053;-42
2022/02/07 12:18:57;;;;;;;0.75;0.30;;;;;;;;;;4174308;28;20122;-42
2022/02/07 12:21:14;;;;;;;1.00;0.20;;;;;;;;;;4169373;28;20573;-42
2022/02/07 12:23:19;;;;;;;0.85;0.30;;;;;;;;;;4173011;28;20057;-42
2022/02/07 12:25:50;;;;;;;0.65;0.30;;;;;;;;;;4169416;28;20049;-42
2022/02/07 12:27:52;;;;;;;0.68;0.30;;;;;;;;;;4169319;28;20056;-42
2022/02/07 12:30:17;;;;;;;1.85;0.25;;;;;;;;;;4169204;28;20122;-41
2022/02/07 12:32:18;;;;;;;1.45;0.43;;;;;;;;;;4175980;28;20060;-42
2022/02/07 12:34:24;;;;;;;0.28;0.20;;;;;;;;;;4167885;28;20057;-41
2022/02/07 12:36:29;;;;;;;0.50;0.20;;;;;;;;;;4168935;28;20116;-41
2022/02/07 12:38:33;;;;;;;2.35;0.30;;;;;;;;;;4171491;28;20086;-42
2022/02/07 12:40:34;;;;;;;0.20;0.20;;;;;;;;;;4168488;28;20056;-42
2022/02/07 12:42:38;;;;;;;1.55;0.22;;;;;;;;;;4173458;28;20065;-40
2022/02/07 12:44:39;;;;;;;0.65;0.10;;;;;;;;;;4170183;28;20112;-43
2022/02/07 12:46:44;;;;;;;0.35;0.10;;;;;;;;;;4169361;28;20413;-41
2022/02/07 12:48:51;;;;;;;1.20;0.13;;;;;;;;;;4168517;28;20057;-42
2022/02/07 12:50:54;;;;;;;0.32;0.10;;;;;;;;;;4174100;28;20056;-41
2022/02/07 12:52:56;;;;;;;1.25;0.22;;;;;;;;;;4174177;28;20477;-42
2022/02/07 12:54:58;;;;;;;0.10;0.10;;;;;;;;;;4173184;28;20053;-42
2022/02/07 12:57:00;;;;;;;1.75;0.20;;;;;;;;;;4174339;28;20053;-43
2022/02/07 12:59:03;;;;;;;0.95;0.30;;;;;;;;;;4168176;28;20454;-41
2022/02/07 13:01:17;;;;;;;0.52;0.20;;;;;;;;;;4171711;28;20439;-43
2022/02/07 13:03:19;;;;;;;1.60;0.20;;;;;;;;;;4174318;28;20112;-41
2022/02/07 13:05:21;;;;;;;0.40;0.40;;;;;;;;;;4174500;28;20057;-41
2022/02/07 13:07:24;;;;;;;1.38;0.20;;;;;;;;;;4179813;28;20111;-42
2022/02/07 13:09:29;;;;;;;0.20;0.20;;;;;;;;;;4177064;28;20429;-42
2022/02/07 13:11:33;;;;;;;1.45;0.40;;;;;;;;;;4179552;28;20382;-42
2022/02/07 13:13:48;;;;;;;0.55;0.30;;;;;;;;;;4170720;28;20069;-41
2022/02/07 13:15:51;;;;;;;1.05;0.10;;;;;;;;;;4169780;28;20134;-43
2022/02/07 13:17:56;;;;;;;0.20;0.10;;;;;;;;;;4171184;28;20114;-42
2022/02/07 13:19:58;;;;;;;0.32;0.13;;;;;;;;;;4181226;28;20511;-43
2022/02/07 13:21:59;;;;;;;1.58;0.30;;;;;;;;;;4174658;28;20053;-41
2022/02/07 13:24:08;;;;;;;0.20;0.20;;;;;;;;;;4176885;28;20057;-43
2022/02/07 13:26:12;;;;;;;0.63;0.10;;;;;;;;;;4168699;28;20529;-41
2022/02/07 13:28:18;;;;;;;0.38;0.20;;;;;;;;;;4167036;28;20049;-43
2022/02/07 13:30:19;;;;;;;1.67;0.20;;;;;;;;;;4174514;28;20064;-43
2022/02/07 13:32:30;;;;;;;0.20;0.20;;;;;;;;;;4172718;28;20053;-42
2022/02/07 13:34:35;;;;;;;0.13;0.10;;;;;;;;;;4174354;28;20061;-42
2022/02/07 13:36:45;;;;;;;1.05;0.30;;;;;;;;;;4182017;28;20057;-42
2022/02/07 13:38:46;;;;;;;0.30;0.20;;;;;;;;;;4169280;28;20501;-42
2022/02/07 13:40:50;;;;;;;0.50;0.17;;;;;;;;;;4174083;28;20115;-42
2022/02/07 13:42:53;;;;;;;0.20;0.10;;;;;;;;;;4175810;28;20155;-42
2022/02/07 13:44:59;;;;;;;0.52;0.30;;;;;;;;;;4174159;28;20049;-43
2022/02/07 13:47:02;;;;;;;0.65;0.10;;;;;;;;;;4179798;28;20053;-42
2022/02/07 13:49:03;;;;;;;0.20;0.13;;;;;;;;;;4179845;28;20052;-42
2022/02/07 13:51:04;;;;;;;0.28;0.20;;;;;;;;;;4180884;28;20052;-43
2022/02/07 13:53:06;;;;;;;0.10;0.05;;;;;;;;;;4183716;28;20443;-42
2022/02/07 13:55:13;;;;;;;0.82;0.30;;;;;;;;;;4180559;28;20662;-42
2022/02/07 13:57:15;;;;;;;0.20;0.10;;;;;;;;;;4171187;28;20155;-42
2022/02/07 13:59:17;;;;;;;0.30;0.13;;;;;;;;;;4175350;28;20562;-42
2022/02/07 14:01:23;;;;;;;0.30;0.10;;;;;;;;;;4171722;28;20056;-41
2022/02/07 14:03:37;;;;;;;0.90;0.20;;;;;;;;;;4171186;28;20060;-42
2022/02/07 14:05:50;;;;;;;0.40;0.10;;;;;;;;;;4178624;28;20563;-42
2022/02/07 14:07:52;;;;;;;1.98;0.20;;;;;;;;;;4183369;28;20064;-42
2022/02/07 14:09:53;;;;;;;0.20;0.15;;;;;;;;;;4173148;28;20056;-42
2022/02/07 14:11:58;;;;;;;1.10;0.20;;;;;;;;;;4170983;28;20405;-43
2022/02/07 14:14:02;;;;;;;0.50;0.10;;;;;;;;;;4169102;28;20111;-42
2022/02/07 14:16:04;;;;;;;0.85;0.20;;;;;;;;;;4176670;28;20053;-42
2022/02/07 14:18:09;;;;;;;2.63;0.20;;;;;;;;;;4173806;28;20405;-42
2022/02/07 14:20:13;;;;;;;0.52;0.10;;;;;;;;;;4187428;28;20056;-42
2022/02/07 14:22:14;;;;;;;0.38;0.20;;;;;;;;;;4169617;28;20057;-40
2022/02/07 14:24:15;;;;;;;0.80;0.10;;;;;;;;;;4173365;28;20057;-40
2022/02/07 14:26:19;;;;;;;0.50;0.10;;;;;;;;;;4173771;28;20159;-42
2022/02/07 14:28:20;;;;;;;0.93;0.30;;;;;;;;;;4173727;28;20103;-42
2022/02/07 14:30:24;;;;;;;0.00;0.00;;;;;;;;;;4174452;28;20072;-42
2022/02/07 14:32:25;;;;;;;0.93;0.10;;;;;;;;;;4169053;28;20456;-40
2022/02/07 14:34:26;;;;;;;0.20;0.10;;;;;;;;;;4170418;28;20057;-42
2022/02/07 14:36:27;;;;;;;0.55;0.20;;;;;;;;;;4166643;28;20379;-40
2022/02/07 14:38:29;;;;;;;0.43;0.10;;;;;;;;;;4167028;28;20390;-42
2022/02/07 14:40:32;;;;;;;0.40;0.30;;;;;;;;;;4173948;28;20073;-42
2022/02/07 14:42:33;;;;;;;0.00;0.00;;;;;;;;;;4178747;28;20507;-41
2022/02/07 14:44:44;;;;;;;1.08;0.22;;;;;;;;;;4169483;28;20102;-40
2022/02/07 14:46:53;;;;;;;0.10;0.10;;;;;;;;;;4166678;28;20045;-43
2022/02/07 14:48:54;;;;;;;0.40;0.22;;;;;;;;;;4166178;28;20108;-40
2022/02/07 14:50:56;;;;;;;0.47;0.10;;;;;;;;;;4169619;28;20053;-43
2022/02/07 14:52:57;;;;;;;0.30;0.20;;;;;;;;;;4152076;28;20057;-41